createdAt,value
2023-01-02T00:02:13.153Z,20.62
2023-01-02T00:04:42.843Z,22.65
2023-01-02T00:07:12.955Z,25.25
2023-01-02T00:09:42.415Z,15.05
2023-01-02T00:12:11.891Z,23.57
2023-01-02T00:14:41.338Z,31.12
2023-01-02T00:17:10.920Z,24.67
2023-01-02T00:19:40.344Z,21.27
2023-01-02T00:22:09.848Z,20.10
2023-01-02T00:24:40.869Z,19.87
2023-01-02T00:27:10.984Z,18.65
2023-01-02T00:29:40.725Z,24.05
2023-01-02T00:32:10.167Z,18.42
2023-01-02T00:34:39.599Z,18.00
2023-01-02T00:37:10.211Z,21.68
2023-01-02T00:39:39.714Z,18.52
2023-01-02T00:42:09.149Z,13.75
2023-01-02T00:44:38.960Z,21.97
2023-01-02T00:47:08.413Z,19.00
2023-01-02T00:49:37.943Z,21.37
2023-01-02T00:52:07.409Z,16.85
2023-01-02T00:54:36.847Z,25.23
2023-01-02T00:57:06.505Z,17.92
2023-01-02T00:59:36.803Z,19.92
2023-01-02T01:02:06.886Z,19.05
2023-01-02T01:04:38.091Z,16.60
2023-01-02T01:07:07.521Z,20.37
2023-01-02T01:09:36.988Z,20.82
2023-01-02T01:12:06.636Z,21.07
2023-01-02T01:14:36.252Z,16.95
2023-01-02T01:17:05.807Z,23.05
2023-01-02T01:19:37.179Z,19.60
2023-01-02T01:22:06.601Z,21.35
2023-01-02T01:24:36.024Z,21.57
2023-01-02T01:27:05.624Z,24.15
2023-01-02T01:29:35.788Z,25.25
2023-01-02T01:32:05.516Z,23.38
2023-01-02T01:34:35.017Z,15.58
2023-01-02T01:37:05.435Z,18.82
2023-01-02T01:39:34.921Z,19.92
2023-01-02T01:42:04.422Z,15.65
2023-01-02T01:44:43.864Z,22.80
2023-01-02T01:47:28.109Z,19.30
2023-01-02T01:50:05.886Z,16.48
2023-01-02T01:52:38.355Z,19.90
2023-01-02T01:55:19.975Z,18.07
2023-01-02T01:57:58.247Z,18.80
2023-01-02T02:00:31.657Z,21.57
2023-01-02T02:03:04.209Z,21.73
2023-01-02T02:08:15.914Z,24.75
2023-01-02T02:10:46.921Z,23.77
2023-01-02T02:13:17.791Z,17.70
2023-01-02T02:16:07.843Z,15.65
2023-01-02T02:19:02.061Z,19.82
2023-01-02T02:21:43.519Z,15.70
2023-01-02T02:24:32.405Z,19.05
2023-01-02T02:27:05.188Z,24.77
2023-01-02T02:32:26.084Z,26.68
2023-01-02T02:35:04.338Z,18.35
2023-01-02T02:37:36.889Z,20.57
2023-01-02T02:40:21.445Z,21.30
2023-01-02T02:43:05.938Z,18.80
2023-01-02T02:46:10.235Z,21.60
2023-01-02T02:49:06.009Z,22.42
2023-01-02T02:52:04.078Z,24.12
2023-01-02T02:54:42.909Z,16.65
2023-01-02T02:57:15.051Z,19.65
2023-01-02T02:59:45.092Z,20.57
2023-01-02T03:02:19.066Z,20.68
2023-01-02T03:04:53.001Z,17.70
2023-01-02T03:10:15.029Z,14.70
2023-01-02T03:12:53.019Z,14.98
2023-01-02T03:15:30.775Z,17.00
2023-01-02T03:18:11.858Z,16.50
2023-01-02T03:20:44.421Z,17.05
2023-01-02T03:26:49.214Z,18.73
2023-01-02T03:29:21.717Z,18.23
2023-01-02T03:34:24.742Z,16.25
2023-01-02T03:37:06.039Z,19.23
2023-01-02T03:39:38.464Z,17.85
2023-01-02T03:47:18.475Z,22.40
2023-01-02T03:49:50.965Z,23.20
2023-01-02T03:52:25.756Z,15.85
2023-01-02T03:54:53.770Z,23.77
2023-01-02T03:57:56.879Z,20.92
2023-01-02T04:00:24.961Z,20.95
2023-01-02T04:05:39.583Z,18.77
2023-01-02T04:08:24.355Z,19.67
2023-01-02T04:10:58.696Z,20.27
2023-01-02T04:13:37.143Z,19.70
2023-01-02T04:16:12.640Z,18.15
2023-01-02T04:18:47.006Z,17.60
2023-01-02T04:21:22.532Z,21.80
2023-01-02T04:23:55.091Z,21.23
2023-01-02T04:26:27.608Z,18.25
2023-01-02T04:28:58.341Z,22.07
2023-01-02T04:31:40.198Z,17.00
2023-01-02T04:34:12.968Z,16.80
2023-01-02T04:36:44.216Z,17.02
2023-01-02T04:39:14.539Z,21.33
2023-01-02T04:41:44.548Z,21.10
2023-01-02T04:44:14.357Z,21.68
2023-01-02T04:46:43.852Z,17.12
2023-01-02T04:49:13.314Z,22.00
2023-01-02T04:51:42.877Z,22.45
2023-01-02T04:54:13.943Z,16.07
2023-01-02T04:56:43.997Z,18.20
2023-01-02T04:59:13.578Z,23.05
2023-01-02T05:01:43.371Z,24.10
2023-01-02T05:04:13.488Z,24.50
2023-01-02T05:06:42.983Z,17.32
2023-01-02T05:09:12.420Z,21.35
2023-01-02T05:11:43.382Z,25.43
2023-01-02T05:14:13.147Z,23.73
2023-01-02T05:16:42.648Z,18.70
2023-01-02T05:19:14.512Z,27.62
2023-01-02T05:22:02.037Z,19.65
2023-01-02T05:24:31.875Z,21.65
2023-01-02T05:27:01.372Z,13.00
2023-01-02T05:29:32.635Z,16.77
2023-01-02T05:32:02.074Z,23.02
2023-01-02T05:34:31.567Z,21.27
2023-01-02T05:37:02.589Z,23.00
2023-01-02T05:39:32.016Z,24.30
2023-01-02T05:42:02.057Z,19.27
2023-01-02T05:44:32.669Z,15.05
2023-01-02T05:47:02.175Z,22.20
2023-01-02T05:49:31.593Z,20.70
2023-01-02T05:52:01.231Z,23.40
2023-01-02T05:54:30.657Z,15.28
2023-01-02T05:57:00.151Z,23.02
2023-01-02T05:59:34.489Z,15.88
2023-01-02T06:02:02.055Z,29.07
2023-01-02T06:04:31.629Z,23.45
2023-01-02T06:07:01.048Z,22.02
2023-01-02T06:09:30.485Z,20.27
2023-01-02T06:12:00.443Z,21.75
2023-01-02T06:14:30.175Z,23.80
2023-01-02T06:17:01.390Z,15.08
2023-01-02T06:19:31.294Z,23.32
2023-01-02T06:22:00.716Z,17.55
2023-01-02T06:24:30.761Z,17.23
2023-01-02T06:27:00.851Z,22.00
2023-01-02T06:29:31.190Z,15.00
2023-01-02T06:32:00.678Z,21.07
2023-01-02T06:34:30.165Z,19.85
2023-01-02T06:37:03.073Z,16.93
2023-01-02T06:39:30.685Z,27.05
2023-01-02T06:42:01.026Z,17.35
2023-01-02T06:44:30.447Z,24.00
2023-01-02T06:47:00.593Z,27.52
2023-01-02T06:49:30.045Z,18.05
2023-01-02T06:51:59.462Z,18.42
2023-01-02T06:54:29.950Z,20.23
2023-01-02T06:57:00.175Z,23.83
2023-01-02T06:59:29.617Z,15.88
2023-01-02T07:01:59.275Z,23.43
2023-01-02T07:04:29.537Z,19.87
2023-01-02T07:06:59.037Z,19.45
2023-01-02T07:09:30.681Z,26.37
2023-01-02T07:11:59.851Z,17.15
2023-01-02T07:14:30.017Z,22.70
2023-01-02T07:17:00.319Z,18.17
2023-01-02T07:19:31.334Z,22.75
2023-01-02T09:40:49.145Z,10.72
2023-01-02T09:43:21.668Z,14.43
2023-01-02T09:45:54.052Z,13.28
2023-01-02T09:48:23.577Z,15.15
2023-01-02T09:50:53.005Z,19.63
2023-01-02T09:53:22.564Z,12.80
2023-01-02T09:55:58.541Z,18.80
2023-01-02T09:58:43.722Z,13.88
2023-01-02T10:01:16.256Z,14.38
2023-01-02T10:03:54.110Z,13.03
2023-01-02T10:06:26.608Z,12.00
2023-01-02T10:09:16.808Z,16.15
2023-01-02T10:12:04.857Z,16.83
2023-01-02T10:14:53.898Z,13.80
2023-01-02T10:17:26.053Z,15.65
2023-01-02T10:19:58.758Z,11.43
2023-01-02T10:25:07.468Z,11.33
2023-01-02T10:27:42.703Z,11.80
2023-01-02T10:30:24.578Z,8.80
2023-01-02T10:33:08.898Z,8.67
2023-01-02T10:35:48.806Z,13.98
2023-01-02T10:38:20.433Z,11.05
2023-01-02T10:40:52.318Z,8.60
2023-01-02T10:43:21.743Z,10.77
2023-01-02T10:45:55.127Z,13.38
2023-01-02T10:48:27.738Z,10.75
2023-01-02T10:51:00.652Z,7.83
2023-01-02T10:53:37.606Z,13.08
2023-01-02T10:56:21.984Z,9.83
2023-01-02T10:58:53.329Z,14.35
2023-01-02T11:01:24.520Z,11.47
2023-01-02T11:04:02.903Z,8.15
2023-01-02T11:06:39.423Z,8.78
2023-01-02T11:09:20.918Z,9.33
2023-01-02T11:11:53.824Z,11.57
2023-01-02T11:14:26.354Z,13.70
2023-01-02T11:17:08.624Z,6.30
2023-01-02T11:19:50.515Z,10.48
2023-01-02T11:22:25.029Z,6.37
2023-01-02T11:25:00.352Z,7.22
2023-01-02T11:27:38.375Z,18.10
2023-01-02T11:30:10.722Z,6.45
2023-01-02T11:32:42.352Z,7.28
2023-01-02T11:35:31.707Z,7.92
2023-01-02T11:38:03.676Z,7.75
2023-01-02T11:40:34.325Z,9.43
2023-01-02T11:43:25.147Z,8.63
2023-01-02T11:45:55.591Z,8.23
2023-01-02T11:48:26.566Z,9.45
2023-01-02T11:50:56.064Z,8.03
2023-01-02T11:53:37.605Z,9.65
2023-01-02T11:56:15.893Z,6.10
2023-01-02T11:59:09.606Z,7.72
2023-01-02T12:02:10.796Z,8.08
2023-01-02T12:04:41.305Z,8.00
2023-01-02T12:07:16.581Z,6.17
2023-01-02T12:10:07.596Z,10.03
2023-01-02T12:13:02.743Z,5.95
2023-01-02T12:15:47.403Z,8.98
2023-01-02T12:18:22.570Z,8.13
2023-01-02T12:21:28.295Z,6.75
2023-01-02T12:24:34.247Z,8.70
2023-01-02T12:27:35.454Z,9.08
2023-01-02T12:30:14.062Z,8.88
2023-01-02T12:33:04.732Z,8.98
2023-01-02T12:35:55.325Z,7.42
2023-01-02T12:38:33.487Z,8.75
2023-01-02T12:41:20.433Z,9.75
2023-01-02T12:44:09.457Z,6.40
2023-01-02T12:46:50.780Z,5.70
2023-01-02T12:49:46.260Z,8.53
2023-01-02T12:52:52.080Z,5.05
2023-01-02T12:55:24.718Z,4.40
2023-01-02T12:58:09.408Z,5.80
2023-01-02T13:01:00.173Z,4.15
2023-01-02T13:03:55.546Z,3.35
2023-01-02T13:06:43.931Z,5.08
2023-01-02T13:09:21.746Z,4.27
2023-01-02T13:12:03.289Z,3.70
2023-01-02T13:14:35.766Z,3.67
2023-01-02T13:17:20.512Z,6.05
2023-01-02T13:19:53.079Z,4.08
2023-01-02T13:24:56.081Z,6.12
2023-01-02T13:27:27.371Z,4.25
2023-01-02T13:29:56.864Z,3.60
2023-01-02T13:32:31.588Z,5.70
2023-01-02T13:35:04.426Z,4.45
2023-01-02T13:40:04.991Z,6.15
2023-01-02T13:42:56.643Z,2.72
2023-01-02T13:45:33.863Z,2.98
2023-01-02T13:48:06.566Z,2.77
2023-01-02T13:50:40.761Z,2.62
2023-01-02T13:53:14.953Z,2.70
2023-01-02T13:56:02.584Z,2.50
2023-01-02T13:58:49.698Z,3.02
2023-01-02T14:01:35.075Z,2.75
2023-01-02T14:04:15.985Z,5.90
2023-01-02T14:06:53.823Z,3.55
2023-01-02T14:09:25.384Z,2.40
2023-01-02T14:12:03.988Z,4.53
2023-01-02T14:14:48.412Z,2.83
2023-01-02T14:17:41.788Z,2.58
2023-01-02T14:20:23.588Z,3.83
2023-01-02T14:23:02.466Z,4.05
2023-01-02T14:25:34.309Z,2.77
2023-01-02T14:28:08.346Z,3.40
2023-01-02T14:30:43.362Z,4.92
2023-01-02T14:33:15.962Z,2.30
2023-01-02T14:35:54.490Z,4.58
2023-01-02T14:38:32.867Z,3.87
2023-01-02T14:41:20.068Z,4.55
2023-01-02T14:43:50.239Z,1.87
2023-01-02T14:46:26.506Z,2.58
2023-01-02T14:49:25.375Z,2.25
2023-01-02T14:51:50.671Z,2.23
2023-01-02T14:54:26.416Z,2.27
2023-01-02T14:56:59.425Z,3.45
2023-01-02T14:59:44.532Z,5.03
2023-01-02T15:02:20.018Z,2.10
2023-01-02T15:04:55.750Z,2.77
2023-01-02T15:07:31.871Z,4.20
2023-01-02T15:10:16.437Z,6.30
2023-01-02T15:13:06.573Z,3.23
2023-01-02T15:15:52.880Z,3.58
2023-01-02T15:18:34.444Z,6.00
2023-01-02T15:21:09.800Z,4.60
2023-01-02T15:26:53.526Z,3.85
2023-01-02T15:29:26.570Z,6.28
2023-01-02T15:31:59.292Z,4.15
2023-01-02T15:34:32.519Z,5.17
2023-01-02T15:37:08.277Z,5.27
2023-01-02T15:39:41.306Z,6.28
2023-01-02T15:42:35.327Z,14.03
2023-01-02T15:45:13.780Z,14.13
2023-01-02T15:47:53.105Z,8.88
2023-01-02T15:50:28.767Z,5.00
2023-01-02T15:53:04.468Z,10.03
2023-01-02T15:55:40.219Z,11.55
2023-01-02T15:58:22.118Z,3.85
2023-01-02T16:01:15.471Z,4.77
2023-01-02T16:04:01.361Z,3.22
2023-01-02T16:06:38.467Z,5.00
2023-01-02T16:09:23.438Z,4.37
2023-01-02T16:11:57.035Z,5.05
2023-01-02T16:14:29.520Z,4.85
2023-01-02T16:17:08.331Z,5.35
2023-01-02T16:19:40.805Z,8.75
2023-01-02T16:22:19.593Z,9.68
2023-01-02T16:24:54.660Z,8.28
2023-01-02T16:27:27.388Z,8.28
2023-01-02T16:29:57.545Z,6.25
2023-01-02T16:32:32.799Z,9.58
2023-01-02T16:35:05.124Z,12.13
2023-01-02T16:37:37.737Z,10.68
2023-01-02T16:41:01.807Z,9.78
2023-01-02T16:43:07.283Z,7.53
2023-01-02T16:45:39.991Z,9.03
2023-01-02T16:48:12.966Z,9.85
2023-01-02T16:50:46.777Z,15.28
2023-01-02T16:53:24.616Z,11.20
2023-01-02T16:55:55.298Z,8.38
2023-01-02T16:58:29.540Z,12.25
2023-01-02T17:00:59.068Z,17.70
2023-01-02T17:03:29.439Z,14.10
2023-01-02T17:06:05.239Z,9.08
2023-01-02T17:08:35.738Z,11.75
2023-01-02T17:11:05.249Z,17.35
2023-01-02T17:13:35.479Z,11.53
2023-01-02T17:16:06.852Z,12.23
2023-01-02T17:18:38.053Z,12.93
2023-01-02T17:21:07.901Z,18.32
2023-01-02T17:23:37.918Z,18.70
2023-01-02T17:26:08.214Z,50.52
2023-01-02T17:28:37.676Z,52.95
2023-01-02T17:31:07.639Z,30.32
2023-01-02T17:33:37.104Z,66.05
2023-01-02T17:36:08.299Z,45.00
2023-01-02T17:38:38.409Z,21.85
2023-01-02T17:41:08.427Z,16.67
2023-01-02T17:43:37.846Z,12.47
2023-01-02T17:46:30.756Z,13.23
2023-01-02T17:48:42.476Z,11.73
2023-01-02T17:51:12.221Z,9.83
2023-01-02T17:53:41.659Z,17.35
2023-01-02T17:56:21.158Z,11.15
2023-01-02T17:58:42.296Z,10.00
2023-01-02T18:01:20.095Z,10.00
2023-01-02T18:03:50.487Z,9.70
2023-01-02T18:06:20.936Z,12.75
2023-01-02T18:08:53.556Z,12.97
2023-01-02T18:11:24.506Z,7.72
2023-01-02T18:13:57.921Z,9.95
2023-01-02T18:16:33.521Z,9.70
2023-01-02T18:19:05.136Z,11.90
2023-01-02T18:21:36.267Z,5.97
2023-01-02T18:24:10.337Z,6.22
2023-01-02T18:26:39.843Z,12.70
2023-01-02T18:29:15.322Z,13.53
2023-01-02T18:31:46.499Z,15.38
2023-01-02T18:34:47.037Z,18.17
2023-01-02T18:36:55.269Z,19.95
2023-01-02T18:39:36.360Z,18.95
2023-01-02T18:42:20.785Z,26.80
2023-01-02T18:44:52.591Z,22.93
2023-01-02T18:47:36.213Z,20.17
2023-01-02T18:50:23.637Z,21.43
2023-01-02T18:52:49.272Z,24.60
2023-01-02T18:55:21.996Z,19.42
2023-01-02T18:58:00.806Z,11.63
2023-01-02T19:00:33.534Z,8.67
2023-01-02T19:03:15.161Z,11.93
2023-01-02T19:05:46.269Z,10.72
2023-01-02T19:08:21.877Z,10.50
2023-01-02T19:10:56.573Z,8.53
2023-01-02T19:13:34.288Z,7.93
2023-01-02T19:16:15.263Z,9.58
2023-01-02T19:18:47.598Z,8.15
2023-01-02T19:21:33.831Z,8.85
2023-01-02T19:24:11.850Z,8.13
2023-01-02T19:26:47.552Z,9.47
2023-01-02T19:29:20.121Z,8.83
2023-01-02T19:32:17.364Z,7.70
2023-01-02T19:34:50.709Z,8.13
2023-01-02T19:37:32.858Z,7.90
2023-01-02T19:40:06.808Z,7.35
2023-01-02T19:42:39.379Z,7.55
2023-01-02T19:45:28.507Z,6.20
2023-01-02T19:47:58.286Z,6.90
2023-01-02T19:50:29.288Z,7.40
2023-01-02T19:52:58.842Z,7.93
2023-01-02T19:55:28.296Z,5.45
2023-01-02T19:57:57.730Z,5.92
2023-01-02T20:00:27.268Z,6.90
2023-01-02T20:02:56.843Z,6.17
2023-01-02T20:05:28.905Z,5.60
2023-01-02T20:07:59.470Z,6.65
2023-01-02T20:10:29.105Z,8.00
2023-01-02T20:12:58.544Z,15.28
2023-01-02T20:15:30.004Z,18.65
2023-01-02T20:18:02.452Z,17.57
2023-01-02T20:20:31.474Z,22.20
2023-01-02T20:23:03.444Z,17.53
2023-01-02T20:25:33.601Z,16.12
2023-01-02T20:28:04.419Z,13.60
2023-01-02T20:30:33.898Z,15.43
2023-01-02T20:33:03.332Z,16.85
2023-01-02T20:35:32.761Z,12.68
2023-01-02T20:38:04.934Z,11.43
2023-01-02T20:40:34.427Z,11.55
2023-01-02T20:43:03.856Z,10.17
2023-01-02T20:45:33.418Z,10.40
2023-01-02T20:48:02.859Z,11.43
2023-01-02T20:50:33.918Z,12.40
2023-01-02T20:53:03.426Z,11.08
2023-01-02T20:55:33.780Z,12.53
2023-01-02T20:58:05.173Z,9.53
2023-01-02T21:00:35.567Z,8.37
2023-01-02T21:03:05.481Z,8.03
2023-01-02T21:05:36.858Z,8.00
2023-01-02T21:08:08.814Z,8.18
2023-01-02T21:10:38.303Z,12.23
2023-01-02T21:13:07.759Z,9.20
2023-01-02T21:15:53.317Z,8.35
2023-01-02T21:18:28.797Z,9.73
2023-01-02T21:21:05.612Z,9.80
2023-01-02T21:23:37.533Z,10.28
2023-01-02T21:26:11.257Z,12.03
2023-01-02T21:28:43.658Z,11.37
2023-01-02T21:31:13.555Z,10.00
2023-01-02T21:33:43.034Z,9.65
2023-01-02T21:36:12.484Z,10.98
2023-01-02T21:38:42.890Z,9.88
2023-01-02T21:41:30.776Z,11.20
2023-01-02T21:44:00.472Z,11.18
2023-01-02T21:46:29.970Z,7.83
2023-01-02T21:48:59.698Z,7.90
2023-01-02T21:51:33.059Z,9.45
2023-01-02T21:54:00.744Z,7.83
2023-01-02T21:56:30.924Z,8.00
2023-01-02T21:59:00.434Z,19.35
2023-01-02T22:01:29.959Z,14.20
2023-01-02T22:03:59.535Z,11.43
2023-01-02T22:06:30.618Z,15.17
2023-01-02T22:09:04.275Z,15.63
2023-01-02T22:11:51.860Z,15.40
2023-01-02T22:14:22.635Z,13.77
2023-01-02T22:16:52.074Z,14.15
2023-01-02T22:19:21.652Z,12.73
2023-01-02T22:21:52.238Z,21.05
2023-01-02T22:24:23.736Z,24.05
2023-01-02T22:26:56.531Z,18.83
2023-01-02T22:29:51.586Z,23.83
2023-01-02T22:32:00.770Z,20.32
2023-01-02T22:34:31.884Z,19.10
2023-01-02T22:37:01.491Z,19.75
2023-01-02T22:39:34.490Z,19.40
2023-01-02T22:42:58.311Z,16.32
2023-01-02T22:44:54.656Z,18.05
2023-01-02T22:47:32.839Z,18.70
2023-01-02T22:50:10.079Z,17.02
2023-01-02T22:52:36.797Z,19.45
2023-01-02T22:55:18.316Z,17.55
2023-01-02T22:57:51.389Z,21.90
2023-01-02T23:00:23.838Z,19.37
2023-01-02T23:02:53.285Z,20.45
2023-01-02T23:05:23.413Z,19.48
2023-01-02T23:07:53.014Z,18.17
2023-01-02T23:10:22.983Z,19.90
2023-01-02T23:12:52.567Z,20.15
2023-01-02T23:15:22.650Z,21.07
2023-01-02T23:18:10.203Z,19.83
2023-01-02T23:20:39.699Z,20.43
2023-01-02T23:23:09.355Z,19.82
2023-01-02T23:25:44.994Z,19.40
2023-01-02T23:28:39.375Z,18.37
2023-01-02T23:30:45.530Z,19.07
2023-01-02T23:33:14.956Z,16.30
2023-01-02T23:35:44.397Z,21.53
2023-01-02T23:38:14.627Z,19.12
2023-01-02T23:40:45.152Z,21.13
2023-01-02T23:43:14.608Z,19.77
2023-01-02T23:45:44.819Z,22.90
2023-01-02T23:48:15.002Z,22.47
2023-01-02T23:50:46.074Z,21.80
2023-01-02T23:53:16.966Z,20.63
2023-01-02T23:55:47.175Z,19.10
2023-01-02T23:58:16.711Z,19.97
